createdAt,value
2019-06-26T00:00:47.930Z,12.35
2019-06-26T00:03:18.559Z,12.68
2019-06-26T00:05:49.016Z,12.00
2019-06-26T00:08:19.440Z,13.25
2019-06-26T00:10:49.958Z,15.10
2019-06-26T00:13:26.131Z,15.90
2019-06-26T00:15:52.703Z,14.85
2019-06-26T00:18:23.292Z,16.82
2019-06-26T00:20:53.924Z,17.60
2019-06-26T00:23:24.661Z,17.73
2019-06-26T00:25:55.527Z,24.25
2019-06-26T00:28:26.028Z,19.15
2019-06-26T00:30:56.536Z,18.20
2019-06-26T00:33:26.941Z,19.67
2019-06-26T00:35:57.524Z,16.75
2019-06-26T00:38:27.927Z,18.30
2019-06-26T00:40:58.386Z,18.67
2019-06-26T00:43:41.588Z,20.17
2019-06-26T00:46:00.903Z,20.25
2019-06-26T00:48:31.529Z,16.87
2019-06-26T00:51:02.232Z,17.60
2019-06-26T00:53:32.617Z,16.07
2019-06-26T00:56:03.018Z,15.83
2019-06-26T00:58:33.567Z,15.50
2019-06-26T01:01:03.983Z,16.97
2019-06-26T01:03:34.443Z,14.00
2019-06-26T01:06:04.999Z,14.00
2019-06-26T01:08:35.384Z,15.23
2019-06-26T01:11:05.921Z,17.50
2019-06-26T01:13:36.342Z,13.85
2019-06-26T01:16:06.739Z,12.90
2019-06-26T01:18:37.145Z,14.50
2019-06-26T01:21:07.628Z,16.60
2019-06-26T01:23:38.467Z,15.60
2019-06-26T01:26:09.157Z,12.40
2019-06-26T01:28:39.694Z,13.05
2019-06-26T01:31:10.085Z,9.90
2019-06-26T01:33:40.471Z,12.82
2019-06-26T01:36:12.338Z,11.95
2019-06-26T01:38:43.749Z,12.05
2019-06-26T01:41:14.652Z,10.85
2019-06-26T01:43:45.210Z,10.23
2019-06-26T01:46:15.626Z,10.98
2019-06-26T01:48:45.968Z,13.93
2019-06-26T01:51:16.478Z,11.33
2019-06-26T01:53:46.863Z,10.90
2019-06-26T01:56:17.277Z,10.30
2019-06-26T01:58:47.631Z,10.25
2019-06-26T02:01:18.044Z,10.50
2019-06-26T02:03:48.495Z,9.48
2019-06-26T02:06:18.887Z,9.50
2019-06-26T02:08:49.265Z,9.30
2019-06-26T02:11:19.762Z,8.93
2019-06-26T02:13:50.139Z,8.93
2019-06-26T02:16:20.609Z,9.55
2019-06-26T02:18:52.588Z,9.20
2019-06-26T02:21:23.951Z,10.08
2019-06-26T02:23:54.540Z,9.70
2019-06-26T02:26:25.735Z,8.90
2019-06-26T02:28:56.451Z,9.25
2019-06-26T02:31:26.912Z,8.78
2019-06-26T02:33:57.343Z,8.60
2019-06-26T02:36:29.457Z,8.28
2019-06-26T02:38:59.935Z,9.58
2019-06-26T02:41:30.331Z,11.83
2019-06-26T02:44:00.910Z,9.33
2019-06-26T02:46:31.400Z,10.08
2019-06-26T02:49:01.800Z,11.22
2019-06-26T02:51:32.256Z,11.50
2019-06-26T02:54:02.651Z,12.98
2019-06-26T02:56:33.128Z,8.95
2019-06-26T02:59:03.578Z,8.90
2019-06-26T03:01:33.991Z,9.75
2019-06-26T03:04:04.602Z,9.03
2019-06-26T03:06:35.035Z,8.65
2019-06-26T03:09:07.385Z,8.80
2019-06-26T03:11:37.793Z,8.95
2019-06-26T03:14:08.275Z,10.30
2019-06-26T03:16:39.162Z,11.97
2019-06-26T03:19:09.602Z,13.28
2019-06-26T03:21:39.986Z,12.33
2019-06-26T03:24:10.506Z,9.63
2019-06-26T03:26:40.990Z,9.95
2019-06-26T03:29:11.416Z,9.40
2019-06-26T03:31:41.841Z,13.15
2019-06-26T03:34:12.293Z,8.35
2019-06-26T03:36:42.954Z,9.93
2019-06-26T03:39:13.328Z,11.45
2019-06-26T03:41:43.774Z,9.53
2019-06-26T03:44:14.227Z,9.35
2019-06-26T03:46:44.610Z,9.98
2019-06-26T03:49:15.077Z,9.63
2019-06-26T03:51:45.561Z,12.88
2019-06-26T03:54:15.995Z,12.43
2019-06-26T03:56:46.507Z,10.95
2019-06-26T03:59:17.013Z,11.93
2019-06-26T04:01:47.436Z,11.45
2019-06-26T04:04:17.947Z,11.33
2019-06-26T04:06:48.420Z,11.63
2019-06-26T04:09:18.968Z,13.72
2019-06-26T04:11:49.416Z,10.50
2019-06-26T04:14:20.006Z,9.50
2019-06-26T04:16:50.421Z,14.70
2019-06-26T04:19:20.803Z,13.45
2019-06-26T04:21:51.296Z,12.70
2019-06-26T04:24:21.665Z,12.03
2019-06-26T04:26:52.268Z,10.18
2019-06-26T04:29:22.915Z,13.93
2019-06-26T04:31:53.349Z,10.40
2019-06-26T04:34:23.875Z,10.43
2019-06-26T04:36:55.958Z,13.48
2019-06-26T04:39:26.444Z,10.72
2019-06-26T04:41:56.863Z,12.18
2019-06-26T04:44:27.304Z,14.73
2019-06-26T04:46:57.741Z,11.53
2019-06-26T04:49:28.123Z,11.60
2019-06-26T04:51:58.624Z,12.35
2019-06-26T04:54:29.208Z,13.88
2019-06-26T04:57:00.128Z,13.35
2019-06-26T04:59:30.584Z,10.72
2019-06-26T05:02:01.009Z,13.88
2019-06-26T05:04:31.470Z,13.10
2019-06-26T05:07:01.974Z,14.28
2019-06-26T05:09:32.479Z,15.30
2019-06-26T05:12:03.021Z,14.35
2019-06-26T05:14:33.594Z,13.60
2019-06-26T05:17:04.043Z,12.65
2019-06-26T05:19:34.443Z,13.20
2019-06-26T05:22:05.101Z,12.50
2019-06-26T05:24:35.545Z,17.23
2019-06-26T05:27:05.972Z,15.45
2019-06-26T05:29:36.329Z,15.40
2019-06-26T05:32:06.761Z,13.22
2019-06-26T05:34:37.567Z,13.50
2019-06-26T05:37:08.069Z,14.65
2019-06-26T05:39:39.903Z,15.63
2019-06-26T05:42:10.552Z,12.65
2019-06-26T05:44:41.026Z,12.33
2019-06-26T05:47:11.578Z,14.75
2019-06-26T05:49:42.125Z,12.55
2019-06-26T05:52:16.496Z,14.53
2019-06-26T05:54:45.323Z,18.42
2019-06-26T05:57:16.169Z,17.50
2019-06-26T05:59:46.993Z,15.63
2019-06-26T06:02:17.800Z,18.48
2019-06-26T06:04:48.569Z,14.07
2019-06-26T06:07:19.189Z,13.13
2019-06-26T06:09:49.915Z,16.87
2019-06-26T06:12:20.650Z,13.93
2019-06-26T06:14:51.186Z,13.72
2019-06-26T06:17:21.810Z,15.40
2019-06-26T06:19:52.570Z,17.62
2019-06-26T06:22:23.220Z,14.38
2019-06-26T06:24:54.086Z,13.62
2019-06-26T06:27:24.928Z,16.37
2019-06-26T06:29:57.075Z,15.45
2019-06-26T06:32:27.756Z,14.93
2019-06-26T06:34:58.403Z,15.48
2019-06-26T06:37:29.206Z,15.98
2019-06-26T06:39:59.889Z,17.20
2019-06-26T06:42:30.532Z,16.82
2019-06-26T06:45:01.026Z,16.90
2019-06-26T06:47:31.543Z,14.60
2019-06-26T06:50:02.101Z,25.12
2019-06-26T06:52:32.771Z,15.40
2019-06-26T06:55:04.312Z,15.13
2019-06-26T06:57:34.888Z,21.80
2019-06-26T07:00:07.448Z,17.92
2019-06-26T07:02:38.077Z,15.53
2019-06-26T07:05:10.036Z,16.45
2019-06-26T07:07:40.798Z,14.87
2019-06-26T07:10:11.467Z,17.00
2019-06-26T07:12:42.083Z,16.17
2019-06-26T07:15:13.621Z,14.90
2019-06-26T07:17:44.334Z,16.62
2019-06-26T07:20:14.862Z,15.25
2019-06-26T07:22:45.377Z,14.98
2019-06-26T07:25:16.015Z,17.87
2019-06-26T07:27:46.554Z,14.28
2019-06-26T07:30:17.174Z,16.65
2019-06-26T07:32:47.887Z,15.43
2019-06-26T07:35:18.385Z,14.87
2019-06-26T07:37:49.306Z,15.18
2019-06-26T07:40:19.937Z,15.80
2019-06-26T07:42:50.498Z,14.15
2019-06-26T07:45:23.982Z,15.60
2019-06-26T07:47:53.468Z,15.18
2019-06-26T07:50:24.096Z,16.73
2019-06-26T07:52:54.577Z,15.35
2019-06-26T07:55:25.156Z,15.53
2019-06-26T07:57:55.759Z,15.70
2019-06-26T08:00:26.297Z,15.90
2019-06-26T08:02:56.773Z,16.05
2019-06-26T08:05:27.253Z,20.90
2019-06-26T08:07:57.783Z,23.55
2019-06-26T08:10:28.282Z,16.82
2019-06-26T08:12:58.958Z,15.48
2019-06-26T08:15:29.495Z,15.43
2019-06-26T08:18:01.529Z,17.27
2019-06-26T08:20:32.188Z,15.58
2019-06-26T08:23:03.612Z,15.70
2019-06-26T08:25:34.243Z,14.60
2019-06-26T08:28:04.869Z,15.05
2019-06-26T08:30:35.506Z,15.78
2019-06-26T08:33:06.107Z,15.72
2019-06-26T08:35:36.647Z,17.42
2019-06-26T08:38:11.347Z,15.45
2019-06-26T08:40:39.950Z,14.78
2019-06-26T08:43:10.482Z,15.48
2019-06-26T08:45:40.945Z,16.17
2019-06-26T08:48:22.718Z,15.13
2019-06-26T08:50:43.783Z,15.05
2019-06-26T08:53:14.304Z,15.45
2019-06-26T08:55:44.773Z,14.93
2019-06-26T08:58:15.275Z,15.13
2019-06-26T09:00:46.622Z,16.40
2019-06-26T09:03:17.347Z,16.57
2019-06-26T09:05:48.831Z,14.68
2019-06-26T09:08:19.459Z,17.35
2019-06-26T09:10:50.482Z,15.55
2019-06-26T09:13:21.045Z,14.95
2019-06-26T09:15:51.441Z,15.43
2019-06-26T09:18:34.961Z,16.97
2019-06-26T09:20:54.206Z,15.35
2019-06-26T09:23:24.773Z,15.93
2019-06-26T09:25:55.555Z,16.32
2019-06-26T09:28:26.103Z,13.85
2019-06-26T09:30:56.752Z,14.60
2019-06-26T09:33:27.335Z,14.05
2019-06-26T09:35:57.970Z,14.10
2019-06-26T09:38:29.171Z,14.40
2019-06-26T09:41:00.295Z,13.68
2019-06-26T09:43:30.940Z,16.07
2019-06-26T09:46:01.408Z,13.32
2019-06-26T09:48:32.017Z,14.45
2019-06-26T09:51:02.577Z,13.78
2019-06-26T09:53:46.598Z,13.85
2019-06-26T09:56:05.275Z,13.48
2019-06-26T09:58:35.687Z,12.73
2019-06-26T10:01:06.215Z,13.70
2019-06-26T10:03:36.681Z,13.98
2019-06-26T10:06:07.236Z,13.68
2019-06-26T10:08:37.620Z,14.38
2019-06-26T10:11:08.034Z,14.28
2019-06-26T10:13:38.563Z,14.70
2019-06-26T10:16:09.025Z,15.40
2019-06-26T10:18:39.506Z,16.97
2019-06-26T10:21:09.989Z,15.90
2019-06-26T10:23:40.405Z,15.43
2019-06-26T10:26:10.942Z,14.58
2019-06-26T10:28:41.341Z,14.63
2019-06-26T10:31:11.783Z,13.85
2019-06-26T10:33:42.357Z,14.98
2019-06-26T10:36:13.252Z,14.07
2019-06-26T10:38:43.892Z,13.95
2019-06-26T10:41:14.398Z,14.53
2019-06-26T10:43:44.916Z,13.88
2019-06-26T10:46:15.431Z,15.38
2019-06-26T10:48:45.923Z,13.93
2019-06-26T10:51:16.413Z,14.20
2019-06-26T10:53:46.810Z,14.10
2019-06-26T10:56:17.427Z,14.50
2019-06-26T10:58:47.924Z,18.40
2019-06-26T11:01:18.477Z,14.87
2019-06-26T11:03:48.932Z,14.50
2019-06-26T11:06:19.379Z,13.58
2019-06-26T11:08:50.936Z,15.85
2019-06-26T11:11:21.374Z,14.93
2019-06-26T11:13:51.822Z,14.20
2019-06-26T11:16:22.259Z,16.52
2019-06-26T11:18:53.049Z,15.03
2019-06-26T11:21:23.499Z,14.00
2019-06-26T11:23:54.157Z,16.62
2019-06-26T11:26:24.564Z,14.95
2019-06-26T11:28:55.072Z,15.28
2019-06-26T11:31:25.554Z,14.58
2019-06-26T11:33:56.235Z,13.90
2019-06-26T11:36:26.723Z,14.87
2019-06-26T11:38:58.153Z,15.30
2019-06-26T11:41:32.293Z,15.78
2019-06-26T11:44:03.493Z,16.35
2019-06-26T11:46:37.049Z,17.00
2019-06-26T11:49:10.785Z,14.97
2019-06-26T11:51:59.361Z,13.93
2019-06-26T11:54:37.546Z,14.45
2019-06-26T11:57:19.008Z,13.93
2019-06-26T11:59:50.548Z,14.80
2019-06-26T12:02:25.538Z,13.68
2019-06-26T12:04:56.742Z,15.05
2019-06-26T12:07:29.544Z,14.93
2019-06-26T12:10:12.757Z,13.88
2019-06-26T12:12:45.393Z,15.60
2019-06-26T12:15:18.770Z,13.68
2019-06-26T12:17:51.569Z,15.78
2019-06-26T12:20:32.261Z,12.70
2019-06-26T12:23:08.311Z,13.80
2019-06-26T12:25:44.106Z,13.03
2019-06-26T12:28:37.808Z,13.03
2019-06-26T12:31:12.161Z,14.10
2019-06-26T12:33:46.883Z,14.68
2019-06-26T12:36:23.922Z,13.18
2019-06-26T12:38:55.466Z,13.83
2019-06-26T12:41:40.016Z,13.57
2019-06-26T12:47:34.212Z,13.45
2019-06-26T12:50:35.783Z,12.10
2019-06-26T12:56:39.027Z,14.10
2019-06-26T12:59:16.581Z,14.17
2019-06-26T13:01:48.383Z,13.05
2019-06-26T13:04:38.268Z,14.00
2019-06-26T13:07:18.323Z,12.10
2019-06-26T13:09:49.717Z,12.73
2019-06-26T13:12:27.053Z,15.68
2019-06-26T13:15:10.857Z,12.70
2019-06-26T13:18:20.768Z,10.85
2019-06-26T13:20:55.114Z,12.82
2019-06-26T13:23:32.314Z,13.03
2019-06-26T13:26:04.007Z,11.33
2019-06-26T13:28:38.022Z,13.15
2019-06-26T13:31:10.441Z,10.88
2019-06-26T13:33:41.125Z,11.45
2019-06-26T13:36:11.883Z,11.08
2019-06-26T13:38:42.602Z,10.20
2019-06-26T13:41:13.355Z,10.08
2019-06-26T13:43:43.932Z,10.15
2019-06-26T13:46:14.494Z,11.57
2019-06-26T13:48:45.195Z,8.48
2019-06-26T13:51:15.777Z,9.58
2019-06-26T13:53:46.558Z,10.43
2019-06-26T13:56:17.297Z,11.10
2019-06-26T13:58:47.837Z,10.20
2019-06-26T14:01:22.987Z,8.43
2019-06-26T14:03:53.005Z,8.95
2019-06-26T14:06:23.629Z,9.00
2019-06-26T14:08:54.093Z,10.30
2019-06-26T14:11:24.666Z,9.95
2019-06-26T14:13:56.643Z,9.53
2019-06-26T14:16:29.808Z,9.03
2019-06-26T14:18:59.238Z,9.73
2019-06-26T14:21:29.724Z,8.63
2019-06-26T14:24:00.066Z,9.53
2019-06-26T14:26:30.467Z,9.50
2019-06-26T14:29:00.901Z,9.08
2019-06-26T14:31:31.434Z,9.63
2019-06-26T14:34:01.804Z,9.25
2019-06-26T14:36:32.331Z,9.43
2019-06-26T14:39:03.229Z,10.58
2019-06-26T14:41:33.714Z,9.75
2019-06-26T14:44:04.083Z,10.32
2019-06-26T14:46:34.542Z,9.08
2019-06-26T14:49:05.061Z,10.13
2019-06-26T14:51:45.443Z,10.13
2019-06-26T14:54:07.762Z,9.73
2019-06-26T14:56:38.250Z,10.72
2019-06-26T14:59:08.653Z,10.00
2019-06-26T15:01:39.483Z,10.40
2019-06-26T15:04:09.948Z,10.60
2019-06-26T15:06:40.380Z,9.90
2019-06-26T15:09:10.728Z,10.08
2019-06-26T15:11:41.348Z,9.80
2019-06-26T15:14:12.035Z,10.18
2019-06-26T15:16:42.506Z,10.95
2019-06-26T15:19:13.089Z,10.68
2019-06-26T15:21:57.537Z,10.75
2019-06-26T15:24:15.757Z,11.22
2019-06-26T15:26:46.223Z,10.32
2019-06-26T15:29:16.663Z,11.15
2019-06-26T15:31:47.170Z,11.35
2019-06-26T15:34:17.590Z,10.75
2019-06-26T15:36:48.070Z,10.03
2019-06-26T15:39:18.437Z,13.30
2019-06-26T15:41:48.883Z,12.73
2019-06-26T15:44:19.291Z,9.65
2019-06-26T15:46:49.876Z,11.55
2019-06-26T15:49:20.405Z,9.85
2019-06-26T15:51:50.814Z,10.75
2019-06-26T15:54:21.304Z,10.25
2019-06-26T15:56:51.848Z,11.88
2019-06-26T15:59:22.246Z,12.28
2019-06-26T16:01:52.763Z,9.93
2019-06-26T16:04:23.196Z,10.78
2019-06-26T16:06:53.663Z,9.38
2019-06-26T16:09:24.149Z,10.78
2019-06-26T16:11:54.617Z,11.68
2019-06-26T16:14:25.232Z,10.65
2019-06-26T16:16:57.216Z,9.85
2019-06-26T16:19:27.673Z,11.18
2019-06-26T16:21:58.139Z,9.68
2019-06-26T16:24:30.216Z,10.15
2019-06-26T16:27:00.964Z,12.47
2019-06-26T16:29:31.394Z,13.98
2019-06-26T16:32:01.846Z,9.90
2019-06-26T16:34:32.384Z,11.90
2019-06-26T16:37:02.871Z,10.10
2019-06-26T16:39:33.364Z,11.95
2019-06-26T16:42:03.841Z,10.95
2019-06-26T16:44:34.544Z,9.73
2019-06-26T16:47:05.030Z,9.48
2019-06-26T16:49:35.600Z,11.63
2019-06-26T16:52:06.179Z,10.48
2019-06-26T16:54:36.719Z,10.13
2019-06-26T16:57:07.224Z,10.93
2019-06-26T16:59:37.652Z,9.73
2019-06-26T17:02:08.252Z,9.95
2019-06-26T17:04:38.728Z,11.15
2019-06-26T17:07:09.193Z,9.95
2019-06-26T17:09:39.574Z,10.10
2019-06-26T17:12:10.044Z,11.68
2019-06-26T17:14:40.583Z,10.78
2019-06-26T17:17:11.150Z,10.40
2019-06-26T17:19:41.592Z,10.03
2019-06-26T17:22:12.155Z,9.80
2019-06-26T17:24:42.593Z,11.03
2019-06-26T17:27:13.163Z,9.63
2019-06-26T17:29:43.735Z,10.10
2019-06-26T17:32:14.236Z,10.08
2019-06-26T17:34:44.694Z,10.53
2019-06-26T17:37:15.263Z,9.25
2019-06-26T17:39:45.877Z,12.35
2019-06-26T17:42:16.972Z,9.70
2019-06-26T17:44:47.473Z,9.35
2019-06-26T17:47:17.906Z,11.83
2019-06-26T17:49:48.419Z,8.25
2019-06-26T17:52:18.898Z,10.30
2019-06-26T17:54:49.359Z,11.65
2019-06-26T17:57:19.801Z,8.78
2019-06-26T17:59:50.351Z,8.63
2019-06-26T18:02:20.817Z,10.18
2019-06-26T18:04:51.374Z,8.45
2019-06-26T18:07:22.065Z,8.23
2019-06-26T18:09:52.391Z,8.03
2019-06-26T18:12:22.794Z,10.95
2019-06-26T18:14:53.156Z,8.65
2019-06-26T18:17:23.590Z,9.65
2019-06-26T18:19:54.089Z,9.60
2019-06-26T18:22:24.648Z,9.85
2019-06-26T18:24:55.016Z,8.75
2019-06-26T18:27:25.424Z,10.32
2019-06-26T18:29:55.870Z,10.38
2019-06-26T18:32:26.286Z,9.60
2019-06-26T18:34:56.776Z,10.55
2019-06-26T18:37:27.444Z,8.93
2019-06-26T18:39:58.157Z,9.18
2019-06-26T18:42:28.780Z,10.95
2019-06-26T18:44:59.256Z,9.58
2019-06-26T18:47:29.651Z,9.40
2019-06-26T18:50:00.123Z,9.98
2019-06-26T18:52:30.664Z,12.00
2019-06-26T18:55:01.321Z,11.68
2019-06-26T18:57:32.165Z,12.05
2019-06-26T19:00:02.587Z,12.13
2019-06-26T19:02:33.076Z,11.15
2019-06-26T19:05:04.654Z,13.50
2019-06-26T19:07:35.126Z,11.05
2019-06-26T19:10:08.067Z,9.55
2019-06-26T19:12:38.631Z,10.90
2019-06-26T19:15:09.091Z,11.93
2019-06-26T19:17:42.448Z,11.55
2019-06-26T19:20:12.280Z,13.18
2019-06-26T19:22:42.767Z,11.78
2019-06-26T19:25:13.152Z,12.65
2019-06-26T19:27:43.616Z,10.00
2019-06-26T19:30:14.030Z,10.75
2019-06-26T19:32:44.522Z,13.28
2019-06-26T19:35:19.182Z,10.03
2019-06-26T19:37:47.021Z,13.62
2019-06-26T19:40:17.596Z,12.53
2019-06-26T19:42:48.074Z,14.15
2019-06-26T19:45:18.535Z,12.03
2019-06-26T19:47:48.925Z,13.50
2019-06-26T19:50:23.168Z,14.18
2019-06-26T19:52:51.534Z,13.60
2019-06-26T19:55:21.898Z,13.72
2019-06-26T19:57:52.442Z,11.10
2019-06-26T20:00:22.940Z,13.00
2019-06-26T20:02:53.691Z,11.45
2019-06-26T20:05:24.066Z,15.28
2019-06-26T20:07:54.541Z,16.05
2019-06-26T20:10:24.976Z,11.88
2019-06-26T20:12:55.371Z,13.13
2019-06-26T20:15:25.818Z,12.75
2019-06-26T20:17:56.911Z,12.68
2019-06-26T20:20:27.415Z,12.13
2019-06-26T20:22:57.830Z,15.23
2019-06-26T20:25:28.306Z,10.53
2019-06-26T20:27:58.756Z,11.60
2019-06-26T20:30:33.147Z,10.82
2019-06-26T20:33:04.071Z,11.80
2019-06-26T20:35:34.495Z,11.88
2019-06-26T20:38:04.967Z,11.57
2019-06-26T20:40:35.447Z,11.88
2019-06-26T20:43:05.929Z,12.80
2019-06-26T20:45:36.306Z,14.25
2019-06-26T20:48:06.784Z,11.63
2019-06-26T20:50:37.161Z,13.48
2019-06-26T20:53:08.079Z,13.25
2019-06-26T20:55:38.455Z,12.03
2019-06-26T20:58:08.912Z,14.68
2019-06-26T21:00:39.552Z,14.35
2019-06-26T21:03:10.146Z,12.50
2019-06-26T21:05:40.782Z,15.53
2019-06-26T21:08:11.186Z,15.38
2019-06-26T21:10:41.686Z,12.07
2019-06-26T21:13:12.238Z,13.60
2019-06-26T21:15:42.752Z,14.30
2019-06-26T21:18:13.183Z,13.48
2019-06-26T21:20:43.686Z,11.33
2019-06-26T21:23:18.834Z,12.80
2019-06-26T21:25:46.152Z,12.70
2019-06-26T21:28:16.689Z,11.25
2019-06-26T21:30:47.227Z,11.08
2019-06-26T21:33:17.869Z,11.65
2019-06-26T21:35:48.254Z,14.15
2019-06-26T21:38:18.774Z,12.78
2019-06-26T21:40:49.151Z,11.83
2019-06-26T21:43:19.605Z,11.73
2019-06-26T21:45:50.048Z,12.18
2019-06-26T21:48:20.548Z,15.18
2019-06-26T21:50:50.931Z,12.73
2019-06-26T21:53:21.307Z,12.10
2019-06-26T21:55:51.704Z,12.40
2019-06-26T21:58:22.095Z,11.30
2019-06-26T22:00:52.706Z,13.32
2019-06-26T22:03:23.287Z,12.65
2019-06-26T22:05:53.761Z,12.98
2019-06-26T22:08:24.160Z,11.45
2019-06-26T22:10:54.606Z,11.93
2019-06-26T22:13:25.201Z,11.80
2019-06-26T22:15:55.651Z,15.40
2019-06-26T22:18:26.255Z,13.43
2019-06-26T22:20:56.616Z,16.35
2019-06-26T22:23:27.035Z,13.32
2019-06-26T22:25:57.544Z,12.53
2019-06-26T22:28:28.060Z,14.10
2019-06-26T22:30:58.419Z,12.15
2019-06-26T22:33:28.937Z,13.00
2019-06-26T22:35:59.316Z,13.03
2019-06-26T22:38:29.809Z,13.93
2019-06-26T22:41:00.517Z,15.93
2019-06-26T22:43:31.143Z,12.78
2019-06-26T22:46:01.607Z,13.43
2019-06-26T22:48:32.110Z,17.07
2019-06-26T22:51:03.726Z,11.75
2019-06-26T22:53:34.147Z,16.35
2019-06-26T22:56:08.064Z,15.63
2019-06-26T22:58:36.862Z,16.48
2019-06-26T23:01:07.244Z,15.25
2019-06-26T23:03:37.813Z,13.75
2019-06-26T23:06:08.313Z,15.65
2019-06-26T23:08:38.805Z,18.35
2019-06-26T23:11:09.563Z,17.25
2019-06-26T23:13:39.975Z,13.62
2019-06-26T23:16:10.515Z,17.25
2019-06-26T23:18:41.096Z,15.48
2019-06-26T23:21:11.496Z,12.20
2019-06-26T23:23:41.970Z,15.15
2019-06-26T23:26:23.510Z,15.98
2019-06-26T23:28:44.568Z,18.60
2019-06-26T23:31:14.928Z,16.40
2019-06-26T23:33:45.455Z,18.82
2019-06-26T23:36:15.897Z,14.95
2019-06-26T23:38:46.383Z,15.28
2019-06-26T23:41:18.111Z,17.50
2019-06-26T23:43:48.764Z,13.38
2019-06-26T23:46:19.229Z,14.53
2019-06-26T23:48:49.767Z,15.35
2019-06-26T23:51:20.266Z,12.07
2019-06-26T23:53:50.794Z,10.30
2019-06-26T23:56:21.351Z,12.45
2019-06-26T23:58:51.860Z,12.50
